Impacts METAR Board
IDs:

KTME - Houston Executive Ar, TX, US

Updated at: 0600 UTC 19 Aug 2019
Potential Impact None Slight Moderate High
Time 18/18Z 18/19Z 18/20Z 18/21Z 18/22Z 18/23Z 19/00Z 19/01Z 19/02Z 19/03Z 19/04Z 19/05Z 19/06Z
Temp95 97 97 95 97 95 91 90 86 84 82 81 81
Dewpt75 75 75 77 75 75 73 73 75 77 77 77 77
Altim29.93 29.92 29.90 29.89 29.88 29.88 29.89 29.90 29.91 29.92 29.94 29.95 29.95
VIS10 10 9 10 10 10 10 10 10 10 10 10 10
CIG-- -- -- 48 -- -- -- -- -- 13 -- 13 12
CoverFEWFEWFEWBKNSCTCLRCLRFEW--OVC--OVCOVC
FltCatVFRVFRVFRVFRVFRVFRVFRVFRVFRMVFRVFRMVFRMVFR
WX--------------------------
WDir190210170190180170170180170180170190170
WSpd13 13 15 11 13 12 13 9 6 9 7 6 5
WGst-- 21 21 19 -- 20 -- -- -- -- -- -- --
Raw hourly METARs
KTME 181755Z AUTO 19013KT 10SM FEW038 FEW049 35/24 A2993 RMK AO2
KTME 181855Z AUTO 21013G21KT 10SM FEW048 36/24 A2992 RMK AO2
KTME 181955Z AUTO 17015G21KT 9SM FEW044 FEW050 FEW060 36/24 A2990 RMK AO2
KTME 182055Z AUTO 19011G19KT 10SM SCT043 BKN048 BKN060 35/25 A2989 RMK AO2
KTME 182155Z AUTO 18013KT 10SM FEW047 SCT055 36/24 A2988 RMK AO2
KTME 182255Z AUTO 17012G20KT 10SM CLR 35/24 A2988 RMK AO2
KTME 182355Z AUTO 17013KT 10SM CLR 33/23 A2989 RMK AO2
KTME 190055Z AUTO 18009KT 10SM FEW020 32/23 A2990 RMK AO2
KTME 190155Z AUTO 17006KT 10SM 30/24 A2991 RMK AO2
KTME 190255Z AUTO 18009KT 10SM OVC013 29/25 A2992 RMK AO2
KTME 190355Z AUTO 17007KT 10SM 28/25 A2994 RMK AO2
KTME 190455Z AUTO 19006KT 10SM OVC013 27/25 A2995 RMK AO2
KTME 190555Z AUTO 17005KT 10SM OVC012 27/25 A2995 RMK AO2



Page loaded:  06:22 UTC  |   11:22 PM Pacific  |   12:22 AM Mountain  |   01:22 AM Central  |   02:22 AM Eastern

 

ADVISORIES

FORECASTS

FORECASTS

OBSERVATIONS

USER TOOLS

ABOUT US